Time;durP1;ratioP1;P1;durP2;ratioP2;P2;SDS_P1;SDS_P2;PMS_P1;PMS_P2;Temp;Humidity;BMP_temperature;BMP_pressure;BME280_temperature;BME280_humidity;BME280_pressure;Samples;Min_cycle;Max_cycle;Signal;HPM_P1;HPM_P2
2022/09/14 00:01:11;;;;;;;;;;;14.80;67.70;;;;;;6183229;23;19904;-71
2022/09/14 00:03:38;;;;;;;;;;;15.00;66.60;;;;;;6157814;23;20312;-70
2022/09/14 00:06:09;;;;;;;;;;;15.10;66.60;;;;;;6183582;23;19923;-70
2022/09/14 00:08:36;;;;;;;;;;;15.20;64.70;;;;;;6157696;23;19913;-71
2022/09/14 00:11:03;;;;;;;;;;;15.20;64.00;;;;;;6183206;23;19922;-68
2022/09/14 00:13:30;;;;;;;;;;;15.20;64.00;;;;;;6183630;23;19963;-68
2022/09/14 00:16:01;;;;;;;;;;;15.20;63.30;;;;;;6183931;23;19919;-67
2022/09/14 00:18:28;;;;;;;;;;;15.20;63.10;;;;;;6183455;23;19911;-68
2022/09/14 00:20:58;;;;;;;;;;;15.20;61.20;;;;;;6157438;23;19955;-68
2022/09/14 00:23:25;;;;;;;;;;;15.20;62.00;;;;;;6157569;23;19942;-67
2022/09/14 00:25:51;;;;;;;;;;;15.10;60.70;;;;;;6182473;23;20316;-71
2022/09/14 00:28:18;;;;;;;;;;;15.00;61.20;;;;;;6182218;23;20263;-70
2022/09/14 00:30:45;;;;;;;;;;;15.00;61.70;;;;;;6182790;23;19936;-71
2022/09/14 00:33:12;;;;;;;;;;;15.00;62.50;;;;;;6182492;23;20247;-71
2022/09/14 00:35:39;;;;;;;;;;;15.00;62.20;;;;;;6182270;23;19938;-70
2022/09/14 00:38:06;;;;;;;;;;;15.00;61.90;;;;;;6179504;23;20277;-70
2022/09/14 00:40:33;;;;;;;;;;;15.00;62.00;;;;;;6182306;23;19909;-71
2022/09/14 00:43:00;;;;;;;;;;;15.10;62.40;;;;;;6182580;23;20287;-71
2022/09/14 00:45:27;;;;;;;;;;;15.10;62.50;;;;;;6155827;23;19924;-71
2022/09/14 00:47:55;;;;;;;;;;;15.20;62.90;;;;;;6182223;23;19916;-71
2022/09/14 00:50:22;;;;;;;;;;;15.20;63.00;;;;;;6155980;23;19908;-71
2022/09/14 00:52:49;;;;;;;;;;;15.20;62.00;;;;;;6182474;23;19951;-70
2022/09/14 00:55:16;;;;;;;;;;;15.30;62.30;;;;;;6156046;23;20293;-69
2022/09/14 00:57:44;;;;;;;;;;;15.30;60.70;;;;;;6154897;23;19908;-69
2022/09/14 01:00:11;;;;;;;;;;;15.20;60.70;;;;;;6155932;23;19963;-69
2022/09/14 01:02:38;;;;;;;;;;;15.20;61.50;;;;;;6181848;23;19940;-70
2022/09/14 01:05:05;;;;;;;;;;;15.30;62.20;;;;;;6181697;23;19923;-70
2022/09/14 01:07:35;;;;;;;;;;;15.30;62.60;;;;;;6156336;23;19934;-70
2022/09/14 01:10:05;;;;;;;;;;;15.30;62.60;;;;;;6156473;23;20364;-70
2022/09/14 01:12:31;;;;;;;;;;;15.30;62.90;;;;;;6182466;23;19920;-70
2022/09/14 01:15:16;;;;;;;;;;;15.40;63.60;;;;;;6182543;23;19904;-71
2022/09/14 01:18:04;;;;;;;;;;;15.50;61.90;;;;;;6182488;23;19908;-71
2022/09/14 01:20:49;;;;;;;;;;;15.50;61.10;;;;;;6181937;23;20378;-70
2022/09/14 01:23:18;;;;;;;;;;;15.50;61.70;;;;;;6155962;23;20332;-69
2022/09/14 01:25:51;;;;;;;;;;;15.60;60.70;;;;;;6182019;23;19952;-69
2022/09/14 01:28:30;;;;;;;;;;;15.70;61.20;;;;;;6181675;23;20386;-69
2022/09/14 01:30:57;;;;;;;;;;;15.70;60.60;;;;;;6181848;23;20228;-70
2022/09/14 01:33:28;;;;;;;;;;;15.60;61.40;;;;;;6181991;23;20251;-70
2022/09/14 01:35:55;;;;;;;;;;;15.50;61.70;;;;;;6155321;23;19908;-69
2022/09/14 01:38:33;;;;;;;;;;;15.50;62.00;;;;;;6153079;23;19908;-69
2022/09/14 01:41:00;;;;;;;;;;;15.50;60.50;;;;;;6182511;23;19931;-68
2022/09/14 01:43:28;;;;;;;;;;;15.50;61.00;;;;;;6181451;23;19908;-70
2022/09/14 01:45:57;;;;;;;;;;;15.50;61.00;;;;;;6155205;23;19960;-69
2022/09/14 01:48:26;;;;;;;;;;;15.50;62.20;;;;;;6155260;23;20382;-71
2022/09/14 01:50:54;;;;;;;;;;;15.70;61.60;;;;;;6155394;23;20287;-70
2022/09/14 01:53:25;;;;;;;;;;;15.70;61.20;;;;;;6155824;23;19956;-69
2022/09/14 01:56:02;;;;;;;;;;;15.80;62.30;;;;;;6182253;23;19912;-69
2022/09/14 01:58:35;;;;;;;;;;;15.90;62.90;;;;;;6155127;23;19943;-69
2022/09/14 02:01:02;;;;;;;;;;;15.80;62.70;;;;;;6181626;23;19914;-68
2022/09/14 02:03:30;;;;;;;;;;;15.70;62.90;;;;;;6155712;23;19914;-70
2022/09/14 02:05:59;;;;;;;;;;;15.70;64.40;;;;;;6155335;23;19912;-71
2022/09/14 02:08:25;;;;;;;;;;;15.70;63.20;;;;;;6155727;23;19915;-70
2022/09/14 02:10:52;;;;;;;;;;;15.70;62.90;;;;;;6154803;23;19983;-70
2022/09/14 02:13:19;;;;;;;;;;;15.70;63.90;;;;;;6181848;23;19909;-70
2022/09/14 02:15:45;;;;;;;;;;;15.70;63.80;;;;;;6181840;23;20248;-71
2022/09/14 02:18:12;;;;;;;;;;;15.80;63.30;;;;;;6155582;23;19916;-69
2022/09/14 02:20:40;;;;;;;;;;;15.90;63.70;;;;;;6155096;23;20294;-69
2022/09/14 02:23:07;;;;;;;;;;;15.90;62.70;;;;;;6155025;23;20283;-69
2022/09/14 02:25:35;;;;;;;;;;;15.90;61.40;;;;;;6155200;23;19923;-69
2022/09/14 02:28:02;;;;;;;;;;;15.80;61.60;;;;;;6155279;23;19983;-69
2022/09/14 02:30:32;;;;;;;;;;;15.80;61.50;;;;;;6155012;23;20332;-69
2022/09/14 02:33:22;;;;;;;;;;;16.00;61.60;;;;;;6131140;23;19988;-69
2022/09/14 02:35:53;;;;;;;;;;;16.00;61.80;;;;;;6162579;23;19908;-69
2022/09/14 02:38:23;;;;;;;;;;;16.10;63.00;;;;;;6152607;23;19936;-69
2022/09/14 02:40:52;;;;;;;;;;;16.10;62.70;;;;;;6155426;23;19987;-69
2022/09/14 02:43:27;;;;;;;;;;;16.10;63.10;;;;;;6181477;23;19908;-69
2022/09/14 02:46:09;;;;;;;;;;;16.20;63.40;;;;;;6154937;23;19916;-70
2022/09/14 02:48:38;;;;;;;;;;;16.20;62.20;;;;;;6154294;23;19915;-71
2022/09/14 02:51:04;;;;;;;;;;;16.40;63.10;;;;;;6181615;23;19920;-71
2022/09/14 02:53:49;;;;;;;;;;;16.50;62.70;;;;;;6181620;23;19904;-71
2022/09/14 02:56:16;;;;;;;;;;;16.50;62.60;;;;;;6181279;23;19983;-71
2022/09/14 02:58:43;;;;;;;;;;;16.50;63.80;;;;;;6155026;23;20335;-72
2022/09/14 03:01:11;;;;;;;;;;;16.50;62.80;;;;;;6153840;23;19908;-72
2022/09/14 03:03:37;;;;;;;;;;;16.50;63.30;;;;;;6154982;23;19904;-70
2022/09/14 03:06:04;;;;;;;;;;;16.40;61.00;;;;;;6181849;23;20391;-71
2022/09/14 03:08:31;;;;;;;;;;;16.30;61.80;;;;;;6155273;23;20236;-73
2022/09/14 03:10:57;;;;;;;;;;;16.20;61.70;;;;;;6154628;23;20344;-73
2022/09/14 03:13:24;;;;;;;;;;;16.20;61.60;;;;;;6181515;23;19912;-73
2022/09/14 03:15:51;;;;;;;;;;;16.20;60.70;;;;;;6155099;23;19947;-73
2022/09/14 03:18:17;;;;;;;;;;;16.20;60.30;;;;;;6181592;23;20394;-73
2022/09/14 03:20:44;;;;;;;;;;;16.30;59.70;;;;;;6180700;23;19987;-73
2022/09/14 03:23:11;;;;;;;;;;;16.30;60.20;;;;;;6180751;23;19928;-73
2022/09/14 03:25:38;;;;;;;;;;;16.40;59.80;;;;;;6181048;23;19924;-73
2022/09/14 03:28:05;;;;;;;;;;;16.50;60.90;;;;;;6154679;23;20308;-73
2022/09/14 03:30:32;;;;;;;;;;;16.40;59.50;;;;;;6180538;23;19915;-73
2022/09/14 03:32:59;;;;;;;;;;;16.40;58.30;;;;;;6181467;23;19904;-73
2022/09/14 03:35:26;;;;;;;;;;;16.30;57.80;;;;;;6181281;23;19905;-73
2022/09/14 03:37:53;;;;;;;;;;;16.20;58.50;;;;;;6178333;23;20312;-75
2022/09/14 03:40:20;;;;;;;;;;;16.10;58.30;;;;;;6154735;23;20369;-73
2022/09/14 03:42:47;;;;;;;;;;;16.20;57.40;;;;;;6181136;23;19913;-75
2022/09/14 03:45:14;;;;;;;;;;;16.20;57.50;;;;;;6181030;23;19987;-72
2022/09/14 03:47:41;;;;;;;;;;;16.30;58.10;;;;;;6180444;23;19912;-72
2022/09/14 03:50:08;;;;;;;;;;;16.30;58.60;;;;;;6181418;23;19905;-72
2022/09/14 03:52:34;;;;;;;;;;;16.40;58.70;;;;;;6130192;23;19905;-72
2022/09/14 03:55:01;;;;;;;;;;;16.40;57.90;;;;;;6180805;23;19915;-72
2022/09/14 03:57:28;;;;;;;;;;;16.40;58.00;;;;;;6180125;23;20328;-72
2022/09/14 03:59:54;;;;;;;;;;;16.40;57.00;;;;;;6181592;23;19915;-73
2022/09/14 04:02:21;;;;;;;;;;;16.40;57.10;;;;;;6183379;23;19908;-73
2022/09/14 04:04:47;;;;;;;;;;;16.50;57.50;;;;;;6183340;23;19912;-73
2022/09/14 04:07:14;;;;;;;;;;;16.40;58.80;;;;;;6182658;23;19908;-73
2022/09/14 04:09:41;;;;;;;;;;;16.40;56.80;;;;;;6156452;23;19911;-73
2022/09/14 04:12:08;;;;;;;;;;;16.30;56.10;;;;;;6182960;23;19927;-73
2022/09/14 04:14:34;;;;;;;;;;;16.30;55.70;;;;;;6182616;23;19912;-73
2022/09/14 04:17:01;;;;;;;;;;;16.40;56.80;;;;;;6182750;23;19958;-73
2022/09/14 04:19:28;;;;;;;;;;;16.30;58.40;;;;;;6182800;23;19909;-72
2022/09/14 04:21:54;;;;;;;;;;;16.30;60.00;;;;;;6182737;23;20350;-72
2022/09/14 04:24:21;;;;;;;;;;;16.30;60.60;;;;;;6183155;23;19914;-73
2022/09/14 04:26:47;;;;;;;;;;;16.30;60.20;;;;;;6182195;23;19913;-72
2022/09/14 04:29:14;;;;;;;;;;;16.40;60.30;;;;;;6156325;23;19905;-72
2022/09/14 04:31:41;;;;;;;;;;;16.40;58.70;;;;;;6182343;23;19958;-69
2022/09/14 04:34:09;;;;;;;;;;;16.40;59.40;;;;;;6156152;23;19908;-71
2022/09/14 04:36:35;;;;;;;;;;;16.40;58.90;;;;;;6155960;23;19915;-70
2022/09/14 04:39:02;;;;;;;;;;;16.40;59.90;;;;;;6180682;23;20010;-70
2022/09/14 04:41:29;;;;;;;;;;;16.30;59.50;;;;;;6182445;23;19954;-72
2022/09/14 04:43:56;;;;;;;;;;;16.30;57.70;;;;;;6182735;23;20331;-71
2022/09/14 04:46:23;;;;;;;;;;;16.30;58.60;;;;;;6181941;23;19916;-72
2022/09/14 04:48:50;;;;;;;;;;;16.40;58.60;;;;;;6182415;23;19915;-71
2022/09/14 04:51:20;;;;;;;;;;;16.40;57.90;;;;;;6182304;23;20375;-71
2022/09/14 04:53:49;;;;;;;;;;;16.30;55.20;;;;;;6182469;23;20243;-71
2022/09/14 04:56:15;;;;;;;;;;;16.40;57.80;;;;;;6182557;23;20284;-71
2022/09/14 04:58:43;;;;;;;;;;;16.40;58.70;;;;;;6156576;23;20252;-71
2022/09/14 05:01:10;;;;;;;;;;;16.30;58.30;;;;;;6182746;23;19904;-71
2022/09/14 05:03:40;;;;;;;;;;;16.30;58.20;;;;;;6182338;23;19908;-70
2022/09/14 05:06:08;;;;;;;;;;;16.30;57.20;;;;;;6181860;23;20235;-71
2022/09/14 05:08:37;;;;;;;;;;;16.30;56.60;;;;;;6182090;23;19919;-72
2022/09/14 05:11:04;;;;;;;;;;;16.30;57.10;;;;;;6181567;23;20259;-74
2022/09/14 05:13:30;;;;;;;;;;;16.30;57.30;;;;;;6182269;23;20046;-71
2022/09/14 05:16:06;;;;;;;;;;;16.30;56.00;;;;;;6182428;23;19904;-73
2022/09/14 05:18:33;;;;;;;;;;;16.30;54.60;;;;;;6182167;23;19932;-72
2022/09/14 05:21:01;;;;;;;;;;;16.20;55.30;;;;;;6182169;23;19909;-72
2022/09/14 05:23:28;;;;;;;;;;;16.30;57.80;;;;;;6181686;23;19908;-72
2022/09/14 05:25:54;;;;;;;;;;;16.30;58.40;;;;;;6155622;23;19916;-72
2022/09/14 05:28:21;;;;;;;;;;;16.30;57.50;;;;;;6181821;23;19931;-71
2022/09/14 05:30:47;;;;;;;;;;;16.20;56.50;;;;;;6182419;23;19905;-71
2022/09/14 05:33:14;;;;;;;;;;;16.30;56.80;;;;;;6182147;23;19912;-72
2022/09/14 05:35:40;;;;;;;;;;;16.30;57.90;;;;;;6182922;23;20438;-72
2022/09/14 05:38:07;;;;;;;;;;;16.20;56.90;;;;;;6179523;23;19909;-71
2022/09/14 05:40:34;;;;;;;;;;;16.20;57.20;;;;;;6182080;23;19904;-72
2022/09/14 05:43:00;;;;;;;;;;;16.20;57.80;;;;;;6181620;23;19904;-71
2022/09/14 05:45:27;;;;;;;;;;;16.20;57.70;;;;;;6181456;23;19916;-71
2022/09/14 05:47:53;;;;;;;;;;;16.20;56.80;;;;;;6182153;23;19986;-71
2022/09/14 05:50:20;;;;;;;;;;;16.20;56.30;;;;;;6181912;23;19915;-70
2022/09/14 05:52:47;;;;;;;;;;;16.20;57.40;;;;;;6181918;23;19915;-70
2022/09/14 05:55:14;;;;;;;;;;;16.20;57.20;;;;;;6181854;23;20331;-71
2022/09/14 05:57:41;;;;;;;;;;;16.20;57.30;;;;;;6181365;23;19904;-71
2022/09/14 06:00:08;;;;;;;;;;;16.20;57.80;;;;;;6181614;23;20356;-70
2022/09/14 06:02:34;;;;;;;;;;;16.20;58.80;;;;;;6182286;23;19920;-70
2022/09/14 06:05:01;;;;;;;;;;;16.20;59.10;;;;;;6181699;23;19915;-71
2022/09/14 06:07:27;;;;;;;;;;;16.20;60.00;;;;;;6180359;23;19928;-72
2022/09/14 06:09:54;;;;;;;;;;;16.20;59.40;;;;;;6180764;23;19908;-71
2022/09/14 06:12:20;;;;;;;;;;;16.20;59.20;;;;;;6181338;23;19957;-70
2022/09/14 06:14:47;;;;;;;;;;;16.20;60.40;;;;;;6181541;23;19939;-70
2022/09/14 06:17:14;;;;;;;;;;;16.20;61.50;;;;;;6181400;23;20275;-72
2022/09/14 06:19:40;;;;;;;;;;;16.20;62.00;;;;;;6181963;23;19904;-68
2022/09/14 06:22:07;;;;;;;;;;;16.20;62.30;;;;;;6181118;23;20287;-71
2022/09/14 06:24:34;;;;;;;;;;;16.10;62.10;;;;;;6181410;23;19914;-70
2022/09/14 06:27:01;;;;;;;;;;;16.10;61.30;;;;;;6179588;23;19912;-72
2022/09/14 06:29:27;;;;;;;;;;;16.10;61.70;;;;;;6154595;23;19924;-71
2022/09/14 06:31:54;;;;;;;;;;;16.10;61.80;;;;;;6181241;23;20215;-71
2022/09/14 06:34:21;;;;;;;;;;;16.10;62.20;;;;;;6180762;23;19905;-71
2022/09/14 06:36:47;;;;;;;;;;;16.00;62.60;;;;;;6180972;23;20358;-72
2022/09/14 06:39:14;;;;;;;;;;;16.00;62.70;;;;;;6178491;23;20367;-72
2022/09/14 06:41:41;;;;;;;;;;;16.00;62.30;;;;;;6180712;23;19960;-71
2022/09/14 06:44:07;;;;;;;;;;;16.00;62.50;;;;;;6180630;23;20338;-70
2022/09/14 06:46:34;;;;;;;;;;;16.00;63.60;;;;;;6180146;23;20255;-72
2022/09/14 06:49:05;;;;;;;;;;;16.00;64.90;;;;;;6154697;23;19915;-70
2022/09/14 06:51:35;;;;;;;;;;;16.00;65.50;;;;;;6180915;23;20320;-71
2022/09/14 06:54:01;;;;;;;;;;;16.00;64.80;;;;;;6181090;23;19908;-73
2022/09/14 06:56:28;;;;;;;;;;;15.90;64.90;;;;;;6180475;23;19932;-73
2022/09/14 06:58:55;;;;;;;;;;;15.90;65.60;;;;;;6154458;23;19959;-72
2022/09/14 07:01:21;;;;;;;;;;;15.90;65.70;;;;;;6181211;23;20389;-72
2022/09/14 07:03:50;;;;;;;;;;;15.80;66.30;;;;;;6154629;23;19908;-73
2022/09/14 07:06:18;;;;;;;;;;;15.80;65.40;;;;;;6180750;23;19917;-73
2022/09/14 07:08:45;;;;;;;;;;;15.80;65.80;;;;;;6181143;23;19908;-73
2022/09/14 07:11:12;;;;;;;;;;;15.80;65.80;;;;;;6180142;23;20396;-73
2022/09/14 07:13:38;;;;;;;;;;;15.80;65.60;;;;;;6155391;23;19919;-73
2022/09/14 07:16:05;;;;;;;;;;;15.70;65.70;;;;;;6154602;23;19908;-73
2022/09/14 07:18:33;;;;;;;;;;;15.70;65.90;;;;;;6155505;23;19950;-73
2022/09/14 07:21:07;;;;;;;;;;;15.70;66.20;;;;;;6181109;23;20335;-73
2022/09/14 07:23:35;;;;;;;;;;;15.70;66.10;;;;;;6180895;23;20032;-75
2022/09/14 07:26:03;;;;;;;;;;;15.70;66.80;;;;;;6154395;23;19978;-75
2022/09/14 07:28:29;;;;;;;;;;;15.70;66.90;;;;;;6155023;23;19938;-76
2022/09/14 07:30:56;;;;;;;;;;;15.70;66.80;;;;;;6155254;23;19908;-73
2022/09/14 07:33:23;;;;;;;;;;;15.60;67.20;;;;;;6180576;23;19939;-71
2022/09/14 07:35:51;;;;;;;;;;;15.70;67.80;;;;;;6180753;23;19987;-71
2022/09/14 07:38:18;;;;;;;;;;;15.60;68.20;;;;;;6178408;23;19904;-71
2022/09/14 07:40:45;;;;;;;;;;;15.60;68.70;;;;;;6181226;23;19919;-71
2022/09/14 07:43:11;;;;;;;;;;;15.60;68.50;;;;;;6181164;23;20340;-72
2022/09/14 07:45:38;;;;;;;;;;;15.60;68.50;;;;;;6180826;23;19986;-72
2022/09/14 07:48:04;;;;;;;;;;;15.50;68.80;;;;;;6154579;23;19914;-72
2022/09/14 07:50:31;;;;;;;;;;;15.50;69.20;;;;;;6181071;23;19934;-72
2022/09/14 07:52:58;;;;;;;;;;;15.50;69.10;;;;;;6155133;23;19912;-72
2022/09/14 07:55:24;;;;;;;;;;;15.50;69.30;;;;;;6180723;23;19991;-71
2022/09/14 07:57:51;;;;;;;;;;;15.40;69.50;;;;;;6180961;23;19904;-71
2022/09/14 08:00:17;;;;;;;;;;;15.40;69.30;;;;;;6180608;23;19905;-70
2022/09/14 08:02:44;;;;;;;;;;;15.40;69.50;;;;;;6180970;23;19935;-72
2022/09/14 08:05:11;;;;;;;;;;;15.40;69.60;;;;;;6180613;23;19920;-72
2022/09/14 08:07:38;;;;;;;;;;;15.40;70.00;;;;;;6180912;23;19940;-72
2022/09/14 08:10:04;;;;;;;;;;;15.30;70.10;;;;;;6154794;23;19908;-72
2022/09/14 08:12:31;;;;;;;;;;;15.40;70.00;;;;;;6181078;23;19944;-72
2022/09/14 08:14:57;;;;;;;;;;;15.30;70.30;;;;;;6181186;23;19916;-72
2022/09/14 08:17:24;;;;;;;;;;;15.30;70.60;;;;;;6181283;23;19914;-72
2022/09/14 08:19:51;;;;;;;;;;;15.30;70.80;;;;;;6154649;23;19939;-72
2022/09/14 08:22:18;;;;;;;;;;;15.30;71.20;;;;;;6180788;23;19908;-72
2022/09/14 08:24:44;;;;;;;;;;;15.30;71.30;;;;;;6180855;23;19912;-71
2022/09/14 08:27:11;;;;;;;;;;;15.30;71.10;;;;;;6180837;23;19947;-72
2022/09/14 08:29:38;;;;;;;;;;;15.30;71.20;;;;;;6181045;23;20457;-71
2022/09/14 08:32:05;;;;;;;;;;;15.20;71.10;;;;;;6181197;23;19904;-71
2022/09/14 08:34:31;;;;;;;;;;;15.20;70.40;;;;;;6154774;23;20008;-72
2022/09/14 08:36:58;;;;;;;;;;;15.20;70.10;;;;;;6178300;23;19909;-70
2022/09/14 08:39:24;;;;;;;;;;;15.20;70.10;;;;;;6180784;23;19915;-68
2022/09/14 08:41:52;;;;;;;;;;;15.20;69.90;;;;;;6181385;23;19940;-71
2022/09/14 08:44:37;;;;;;;;;;;15.20;70.10;;;;;;6155001;23;20387;-69
2022/09/14 08:47:05;;;;;;;;;;;15.20;69.90;;;;;;6181598;23;19959;-71
2022/09/14 08:49:50;;;;;;;;;;;15.20;69.70;;;;;;6182543;23;19908;-69
2022/09/14 08:52:27;;;;;;;;;;;15.10;69.30;;;;;;6182401;23;19939;-72
2022/09/14 08:54:54;;;;;;;;;;;15.10;68.90;;;;;;6182616;23;19919;-70
2022/09/14 08:57:44;;;;;;;;;;;15.10;68.60;;;;;;6155861;23;19984;-71
2022/09/14 09:00:15;;;;;;;;;;;15.10;68.60;;;;;;6156208;23;19905;-69
2022/09/14 09:02:42;;;;;;;;;;;15.20;68.40;;;;;;6156245;23;19936;-68
2022/09/14 09:05:08;;;;;;;;;;;15.20;68.10;;;;;;6182411;23;19904;-71
2022/09/14 09:07:38;;;;;;;;;;;15.10;68.00;;;;;;6179627;23;19905;-70
2022/09/14 09:10:05;;;;;;;;;;;15.10;67.40;;;;;;6174621;23;20282;-70
2022/09/14 09:12:51;;;;;;;;;;;15.00;67.50;;;;;;6153923;23;19939;-72
2022/09/14 09:15:31;;;;;;;;;;;15.00;67.40;;;;;;6154295;23;19908;-68
2022/09/14 09:18:03;;;;;;;;;;;15.10;67.20;;;;;;6181299;23;20369;-69
2022/09/14 09:20:31;;;;;;;;;;;15.10;67.30;;;;;;6181773;23;19927;-70
2022/09/14 09:22:58;;;;;;;;;;;15.10;67.20;;;;;;6154327;23;19905;-70
2022/09/14 09:25:26;;;;;;;;;;;15.10;67.30;;;;;;6181323;23;20314;-70
2022/09/14 09:28:02;;;;;;;;;;;15.10;67.50;;;;;;6181464;23;19987;-70
2022/09/14 09:30:28;;;;;;;;;;;15.10;67.60;;;;;;6181334;23;19991;-68
2022/09/14 09:32:55;;;;;;;;;;;15.10;67.90;;;;;;6154611;23;19912;-72
2022/09/14 09:35:23;;;;;;;;;;;15.10;67.80;;;;;;6154690;23;19988;-69
2022/09/14 09:37:49;;;;;;;;;;;15.00;67.70;;;;;;6178761;23;19916;-70
2022/09/14 09:40:16;;;;;;;;;;;15.10;67.70;;;;;;6179291;23;19991;-67
2022/09/14 10:23:32;;;;;;;;;;;15.10;68.50;;;;;;6172663;23;19970;-70
2022/09/14 10:26:14;;;;;;;;;;;15.00;68.40;;;;;;6174857;23;19999;-72
2022/09/14 10:28:44;;;;;;;;;;;15.00;68.50;;;;;;6179893;23;19908;-67
2022/09/14 10:31:11;;;;;;;;;;;15.00;68.60;;;;;;6152532;23;19904;-68
2022/09/14 10:33:37;;;;;;;;;;;15.00;68.80;;;;;;6177127;23;20328;-67
2022/09/14 10:36:08;;;;;;;;;;;15.00;68.80;;;;;;6154314;23;19995;-67
2022/09/14 10:38:39;;;;;;;;;;;15.00;68.90;;;;;;6150313;23;19909;-67
2022/09/14 10:41:12;;;;;;;;;;;15.00;68.70;;;;;;6154343;23;19923;-68
2022/09/14 10:43:42;;;;;;;;;;;15.00;68.90;;;;;;6179937;23;19915;-70
2022/09/14 10:46:11;;;;;;;;;;;15.00;69.00;;;;;;6178416;23;20324;-69
2022/09/14 10:48:51;;;;;;;;;;;14.90;68.90;;;;;;6153179;23;19912;-68
2022/09/14 10:51:22;;;;;;;;;;;14.90;69.10;;;;;;6154323;23;19943;-69
2022/09/14 10:53:54;;;;;;;;;;;14.90;69.10;;;;;;6180927;23;19955;-69
2022/09/14 10:56:39;;;;;;;;;;;14.90;69.20;;;;;;6179627;23;19909;-70
2022/09/14 10:59:12;;;;;;;;;;;14.90;69.00;;;;;;6179911;23;19920;-68
2022/09/14 11:01:54;;;;;;;;;;;14.90;69.30;;;;;;6154670;23;19920;-69
2022/09/14 11:04:41;;;;;;;;;;;14.80;69.50;;;;;;6179190;23;19908;-67
2022/09/14 11:07:11;;;;;;;;;;;14.80;69.60;;;;;;6153773;23;19979;-68
2022/09/14 11:09:37;;;;;;;;;;;14.80;69.50;;;;;;6153215;23;19908;-68
2022/09/14 11:12:06;;;;;;;;;;;14.80;69.10;;;;;;6178599;23;19987;-68
2022/09/14 11:14:51;;;;;;;;;;;14.80;69.20;;;;;;6177020;23;19933;-69
2022/09/14 11:17:35;;;;;;;;;;;14.80;69.30;;;;;;6178307;23;19951;-70
2022/09/14 11:20:14;;;;;;;;;;;14.80;69.40;;;;;;6178996;23;19908;-69
2022/09/14 11:22:59;;;;;;;;;;;14.80;69.50;;;;;;6177691;23;19909;-69
2022/09/14 11:25:32;;;;;;;;;;;14.70;69.90;;;;;;6179296;23;20281;-69
2022/09/14 11:28:00;;;;;;;;;;;14.70;70.50;;;;;;6180207;23;19908;-69
2022/09/14 11:30:37;;;;;;;;;;;14.70;70.70;;;;;;6154165;23;19908;-69
2022/09/14 11:33:09;;;;;;;;;;;14.60;71.10;;;;;;6154987;23;20066;-70
2022/09/14 11:35:45;;;;;;;;;;;14.60;71.40;;;;;;6153424;23;19943;-67
2022/09/14 11:38:13;;;;;;;;;;;14.50;71.70;;;;;;6150443;23;19907;-67
2022/09/14 11:40:43;;;;;;;;;;;14.50;71.80;;;;;;6152619;23;20586;-68
2022/09/14 11:43:10;;;;;;;;;;;14.40;72.10;;;;;;6180667;23;20003;-69
2022/09/14 11:45:40;;;;;;;;;;;14.40;72.30;;;;;;6178869;23;20627;-69
2022/09/14 11:48:14;;;;;;;;;;;14.30;72.60;;;;;;6153703;23;19916;-69
2022/09/14 11:50:41;;;;;;;;;;;14.30;72.80;;;;;;6179523;23;19908;-68
2022/09/14 11:53:12;;;;;;;;;;;14.30;73.00;;;;;;6154024;23;19912;-69
2022/09/14 11:55:42;;;;;;;;;;;14.30;73.20;;;;;;6154177;23;19908;-69
2022/09/14 11:58:14;;;;;;;;;;;14.20;73.40;;;;;;6153906;23;19912;-69
2022/09/14 12:00:46;;;;;;;;;;;14.20;73.40;;;;;;6153413;23;19931;-69
2022/09/14 12:03:19;;;;;;;;;;;14.20;73.80;;;;;;6180403;23;19987;-68
2022/09/14 12:05:46;;;;;;;;;;;14.20;73.90;;;;;;6179423;23;19920;-68
2022/09/14 12:08:26;;;;;;;;;;;14.20;74.10;;;;;;6153271;23;19904;-68
2022/09/14 12:11:02;;;;;;;;;;;14.20;74.20;;;;;;6178937;23;19904;-68
2022/09/14 12:13:29;;;;;;;;;;;14.10;74.60;;;;;;6179913;23;20000;-68
2022/09/14 12:16:06;;;;;;;;;;;14.10;74.60;;;;;;6179884;23;20287;-67
2022/09/14 12:18:34;;;;;;;;;;;14.10;74.80;;;;;;6153911;23;19916;-68
2022/09/14 12:21:02;;;;;;;;;;;14.10;75.00;;;;;;6154070;23;19905;-69
2022/09/14 12:23:29;;;;;;;;;;;14.00;75.00;;;;;;6182824;23;19908;-68
2022/09/14 12:26:11;;;;;;;;;;;14.00;75.20;;;;;;6182044;23;20286;-68
2022/09/14 12:28:39;;;;;;;;;;;14.00;75.30;;;;;;6180709;23;19924;-68
2022/09/14 12:31:06;;;;;;;;;;;14.00;75.20;;;;;;6155298;23;19963;-68
2022/09/14 12:33:32;;;;;;;;;;;13.90;75.40;;;;;;6181505;23;19975;-68
2022/09/14 12:36:11;;;;;;;;;;;13.90;75.60;;;;;;6182072;23;19909;-68
2022/09/14 12:38:38;;;;;;;;;;;13.90;75.50;;;;;;6178855;23;20374;-68
2022/09/14 12:41:08;;;;;;;;;;;13.80;75.70;;;;;;6179561;23;19908;-68
2022/09/14 12:43:34;;;;;;;;;;;13.80;75.70;;;;;;6181976;23;19908;-68
2022/09/14 12:46:05;;;;;;;;;;;13.80;75.90;;;;;;6180670;23;19923;-68
2022/09/14 12:51:13;;;;;;;;;;;13.80;75.90;;;;;;6181908;23;20248;-68
2022/09/14 12:53:40;;;;;;;;;;;13.80;75.70;;;;;;6182777;23;19904;-68
2022/09/14 12:56:11;;;;;;;;;;;13.90;75.60;;;;;;6180316;23;20457;-68
2022/09/14 12:58:38;;;;;;;;;;;13.90;75.40;;;;;;6154644;23;19908;-68
2022/09/14 13:01:13;;;;;;;;;;;13.90;75.20;;;;;;6182536;23;19943;-68
2022/09/14 13:03:43;;;;;;;;;;;14.00;75.40;;;;;;6182456;23;19908;-68
2022/09/14 13:06:11;;;;;;;;;;;13.90;75.50;;;;;;6155982;23;19974;-69
2022/09/14 13:08:37;;;;;;;;;;;13.90;75.60;;;;;;6155983;23;19908;-70
2022/09/14 13:11:04;;;;;;;;;;;13.80;75.50;;;;;;6181864;23;19908;-70
2022/09/14 13:13:31;;;;;;;;;;;13.80;75.60;;;;;;6155651;23;19908;-70
2022/09/14 13:15:59;;;;;;;;;;;13.90;75.70;;;;;;6181991;23;19983;-70
2022/09/14 13:18:30;;;;;;;;;;;13.80;75.70;;;;;;6154865;23;19908;-70
2022/09/14 13:20:57;;;;;;;;;;;13.80;75.70;;;;;;6182098;23;20363;-70
2022/09/14 13:23:32;;;;;;;;;;;13.80;75.70;;;;;;6157607;23;19905;-68
2022/09/14 13:25:59;;;;;;;;;;;13.80;75.70;;;;;;6157849;23;20340;-68
2022/09/14 13:28:26;;;;;;;;;;;13.80;75.70;;;;;;6184958;23;19916;-68
2022/09/14 13:30:54;;;;;;;;;;;13.70;75.70;;;;;;6158174;23;19927;-69
2022/09/14 13:33:20;;;;;;;;;;;13.70;75.70;;;;;;6157594;23;19912;-68
2022/09/14 13:35:48;;;;;;;;;;;13.70;76.00;;;;;;6184462;23;19912;-68
2022/09/14 13:38:19;;;;;;;;;;;13.70;76.00;;;;;;6157601;23;20247;-68
2022/09/14 13:40:45;;;;;;;;;;;13.70;76.10;;;;;;6158450;23;19905;-68
2022/09/14 13:43:12;;;;;;;;;;;13.70;76.20;;;;;;6184797;23;20232;-68
2022/09/14 13:45:39;;;;;;;;;;;13.70;76.20;;;;;;6184672;23;19916;-68
2022/09/14 13:48:05;;;;;;;;;;;13.60;76.30;;;;;;6157754;23;19927;-68
2022/09/14 13:50:32;;;;;;;;;;;13.60;76.50;;;;;;6158453;23;19958;-68
2022/09/14 13:52:59;;;;;;;;;;;13.70;76.70;;;;;;6158494;23;19911;-68
2022/09/14 13:55:26;;;;;;;;;;;13.60;76.60;;;;;;6184123;23;19908;-68
2022/09/14 13:58:05;;;;;;;;;;;13.70;76.70;;;;;;6184446;23;19911;-68
2022/09/14 14:00:32;;;;;;;;;;;13.70;76.50;;;;;;6184597;23;19983;-68
2022/09/14 14:03:01;;;;;;;;;;;13.70;76.60;;;;;;6184348;23;19975;-68
2022/09/14 14:05:28;;;;;;;;;;;13.70;76.50;;;;;;6158695;23;19990;-68
2022/09/14 14:07:56;;;;;;;;;;;13.70;76.50;;;;;;6158875;23;20247;-68
2022/09/14 14:10:26;;;;;;;;;;;13.70;76.60;;;;;;6158240;23;19904;-68
2022/09/14 14:12:53;;;;;;;;;;;13.70;76.70;;;;;;6157130;23;19904;-68
2022/09/14 14:15:20;;;;;;;;;;;13.70;76.70;;;;;;6184348;23;19955;-68
2022/09/14 14:17:46;;;;;;;;;;;13.70;76.80;;;;;;6184389;23;19911;-68
2022/09/14 14:20:31;;;;;;;;;;;13.70;76.80;;;;;;6183636;23;19931;-68
2022/09/14 14:22:59;;;;;;;;;;;13.70;77.00;;;;;;6184759;23;19912;-68
2022/09/14 14:25:36;;;;;;;;;;;13.70;77.20;;;;;;6183808;23;19928;-68
2022/09/14 14:28:04;;;;;;;;;;;13.70;77.40;;;;;;6183368;23;19912;-68
2022/09/14 14:30:31;;;;;;;;;;;13.70;77.50;;;;;;6182950;23;19975;-68
2022/09/14 14:32:58;;;;;;;;;;;13.70;77.90;;;;;;6157265;23;19904;-68
2022/09/14 14:35:26;;;;;;;;;;;13.70;78.00;;;;;;6183906;23;19912;-68
2022/09/14 14:37:53;;;;;;;;;;;13.70;78.30;;;;;;6184122;23;19988;-68
2022/09/14 14:40:20;;;;;;;;;;;13.70;78.20;;;;;;6182920;23;20228;-68
2022/09/14 14:42:47;;;;;;;;;;;13.70;78.10;;;;;;6156783;23;20007;-68
2022/09/14 14:45:16;;;;;;;;;;;13.60;77.90;;;;;;6184238;23;19908;-68
2022/09/14 14:47:42;;;;;;;;;;;13.70;77.70;;;;;;6184563;23;19939;-68
2022/09/14 14:50:22;;;;;;;;;;;13.60;77.70;;;;;;6158039;23;20402;-68
2022/09/14 14:52:50;;;;;;;;;;;13.60;77.90;;;;;;6184977;23;19919;-68
2022/09/14 14:55:18;;;;;;;;;;;13.60;78.10;;;;;;6184918;23;19948;-68
2022/09/14 15:32:01;;;;;;;;;;;13.40;78.40;;;;;;6180957;23;19923;-69
2022/09/14 15:34:28;;;;;;;;;;;13.30;78.70;;;;;;6183121;23;20243;-68
2022/09/14 15:36:56;;;;;;;;;;;13.30;78.70;;;;;;6183046;23;20007;-69
2022/09/14 15:39:26;;;;;;;;;;;13.30;78.90;;;;;;6182973;23;20332;-68
2022/09/14 15:41:52;;;;;;;;;;;13.30;79.00;;;;;;6157123;23;19908;-68
2022/09/14 15:44:19;;;;;;;;;;;13.30;79.10;;;;;;6184100;23;19904;-69